createdAt,value
2019-06-07T00:00:50.842Z,16.00
2019-06-07T00:03:27.537Z,16.10
2019-06-07T00:05:49.893Z,16.00
2019-06-07T00:08:24.965Z,16.00
2019-06-07T00:10:48.744Z,16.00
2019-06-07T00:13:20.212Z,16.00
2019-06-07T00:15:48.566Z,16.00
2019-06-07T00:18:23.100Z,16.10
2019-06-07T00:20:47.498Z,16.10
2019-06-07T00:23:20.718Z,16.10
2019-06-07T00:25:46.679Z,16.10
2019-06-07T00:28:17.295Z,16.10
2019-06-07T00:30:51.792Z,16.10
2019-06-07T00:33:35.295Z,16.20
2019-06-07T00:36:04.876Z,16.10
2019-06-07T00:38:33.527Z,16.10
2019-06-07T00:41:02.069Z,16.20
2019-06-07T00:43:30.651Z,16.10
2019-06-07T00:45:59.210Z,16.10
2019-06-07T00:48:32.701Z,16.00
2019-06-07T00:50:58.163Z,16.10
2019-06-07T00:53:31.689Z,16.10
2019-06-07T00:55:57.372Z,16.10
2019-06-07T00:58:29.196Z,16.20
2019-06-07T01:00:56.353Z,16.10
2019-06-07T01:03:26.018Z,16.10
2019-06-07T01:05:55.037Z,16.00
2019-06-07T01:08:27.674Z,15.90
2019-06-07T01:10:54.453Z,16.00
2019-06-07T01:13:26.559Z,15.90
2019-06-07T01:15:53.698Z,15.90
2019-06-07T01:18:43.846Z,15.90
2019-06-07T01:20:52.560Z,16.00
2019-06-07T01:24:03.264Z,15.90
2019-06-07T01:25:51.993Z,15.90
2019-06-07T01:28:24.145Z,15.80
2019-06-07T01:30:52.984Z,15.80
2019-06-07T01:33:25.722Z,15.70
2019-06-07T01:35:53.019Z,15.80
2019-06-07T01:38:24.452Z,15.80
2019-06-07T01:40:51.864Z,15.70
2019-06-07T01:43:26.200Z,15.70
2019-06-07T01:45:50.992Z,15.70
2019-06-07T01:48:21.617Z,15.70
2019-06-07T01:50:50.001Z,15.60
2019-06-07T01:53:21.906Z,15.60
2019-06-07T06:55:12.944Z,19.70
2019-06-07T06:57:41.874Z,20.00
2019-06-07T07:00:13.380Z,20.20
2019-06-07T07:03:35.133Z,20.40
2019-06-07T07:05:14.142Z,20.60
2019-06-07T07:07:45.178Z,20.80
2019-06-07T07:10:18.044Z,21.00
2019-06-07T07:12:47.855Z,21.10
2019-06-07T07:15:18.778Z,21.30
2019-06-07T07:18:02.598Z,21.40
2019-06-07T07:20:17.895Z,21.50
2019-06-07T07:22:48.606Z,21.70
2019-06-07T07:25:17.123Z,21.70
2019-06-07T07:27:47.237Z,21.70
2019-06-07T07:30:35.918Z,21.80
2019-06-07T07:32:51.301Z,22.00
2019-06-07T07:35:20.066Z,22.20
2019-06-07T07:37:57.022Z,22.30
2019-06-07T07:40:56.200Z,22.30
2019-06-07T07:42:54.328Z,22.30
2019-06-07T07:45:21.476Z,22.40
2019-06-07T07:48:08.722Z,22.40
2019-06-07T07:50:22.254Z,22.30
2019-06-07T07:52:59.193Z,22.30
2019-06-07T07:55:21.403Z,22.20
2019-06-07T07:57:58.134Z,22.30
2019-06-07T08:00:50.245Z,22.40
2019-06-07T08:02:56.141Z,22.50
2019-06-07T08:05:41.582Z,22.60
2019-06-07T08:08:00.217Z,22.80
2019-06-07T08:10:24.992Z,23.00
2019-06-07T08:13:14.192Z,23.00
2019-06-07T08:15:24.795Z,23.10
2019-06-07T08:17:58.046Z,23.20
2019-06-07T08:20:25.630Z,23.40
2019-06-07T08:22:59.728Z,23.40
2019-06-07T08:25:26.154Z,23.50
2019-06-07T08:27:56.877Z,23.60
2019-06-07T08:30:48.075Z,23.70
2019-06-07T08:33:23.891Z,23.70
2019-06-07T08:36:03.792Z,23.70
2019-06-07T08:38:26.568Z,23.70
2019-06-07T08:40:30.200Z,23.70
2019-06-07T08:43:15.227Z,23.70
2019-06-07T08:45:30.142Z,23.80
2019-06-07T08:48:09.195Z,23.80
2019-06-07T08:50:30.530Z,23.90
2019-06-07T08:53:05.101Z,23.90
2019-06-07T08:55:29.687Z,23.90
2019-06-07T08:58:05.800Z,23.90
2019-06-07T09:00:45.500Z,23.80
2019-06-07T09:03:05.196Z,23.80
2019-06-07T09:05:29.902Z,23.80
2019-06-07T09:08:20.675Z,23.80
2019-06-07T09:10:34.281Z,23.80
2019-06-07T09:13:07.496Z,23.80
2019-06-07T09:15:33.700Z,23.70
2019-06-07T09:18:38.011Z,23.70
2019-06-07T09:20:47.753Z,23.70
2019-06-07T09:23:18.188Z,23.70
2019-06-07T09:25:57.482Z,23.60
2019-06-07T09:28:20.058Z,23.70
2019-06-07T09:30:49.289Z,23.70
2019-06-07T09:33:18.192Z,23.70
2019-06-07T09:35:47.340Z,23.70
2019-06-07T09:38:25.654Z,23.60
2019-06-07T09:40:46.594Z,23.70
2019-06-07T09:46:04.661Z,23.80
2019-06-07T09:49:14.357Z,23.80
2019-06-07T09:51:20.741Z,23.90
2019-06-07T09:53:50.113Z,23.90
2019-06-07T09:56:34.851Z,23.90
2019-06-07T09:59:07.473Z,23.90
2019-06-07T10:01:38.607Z,23.90
2019-06-07T10:04:11.973Z,23.90
2019-06-07T10:07:08.196Z,23.90
2019-06-07T10:12:00.314Z,23.90
2019-06-07T10:14:30.092Z,23.90
2019-06-07T10:17:01.116Z,24.00
2019-06-07T10:19:30.065Z,24.00
2019-06-07T10:21:59.267Z,24.00
2019-06-07T10:24:28.576Z,23.90
2019-06-07T10:26:57.748Z,23.90
2019-06-07T10:29:26.409Z,23.90
2019-06-07T10:31:55.233Z,23.90
2019-06-07T10:34:24.849Z,23.90
2019-06-07T10:36:53.421Z,23.90
2019-06-07T10:39:22.333Z,23.90
2019-06-07T10:41:54.021Z,23.90
2019-06-07T10:44:21.615Z,23.90
2019-06-07T10:46:50.257Z,23.90
2019-06-07T10:49:18.884Z,23.90
2019-06-07T10:51:47.663Z,24.00
2019-06-07T10:54:35.623Z,24.10
2019-06-07T10:57:09.266Z,24.10
2019-06-07T10:59:36.865Z,24.10
2019-06-07T11:02:05.835Z,24.20
2019-06-07T11:04:34.353Z,24.20
2019-06-07T11:07:04.499Z,24.20
2019-06-07T11:09:34.090Z,24.20
2019-06-07T11:12:04.338Z,24.30
2019-06-07T11:14:40.461Z,24.30
2019-06-07T11:17:11.190Z,24.30
2019-06-07T11:19:40.062Z,24.30
2019-06-07T11:22:10.105Z,24.30
2019-06-07T11:24:39.047Z,24.30
2019-06-07T11:27:09.640Z,24.40
2019-06-07T11:29:38.421Z,24.40
2019-06-07T11:32:08.293Z,24.40
2019-06-07T11:34:37.062Z,24.40
2019-06-07T11:37:07.479Z,24.40
2019-06-07T11:39:36.683Z,24.40
2019-06-07T11:42:05.973Z,24.40
2019-06-07T11:44:34.770Z,24.40
2019-06-07T11:47:06.190Z,24.50
2019-06-07T11:49:35.203Z,24.50
2019-06-07T11:52:04.007Z,24.50
2019-06-07T11:54:33.710Z,24.60
2019-06-07T11:57:06.753Z,24.60
2019-06-07T11:59:35.586Z,24.60
2019-06-07T12:02:04.556Z,24.70
2019-06-07T12:04:35.106Z,24.70
2019-06-07T12:07:03.980Z,24.70
2019-06-07T12:09:32.540Z,24.70
2019-06-07T12:12:01.373Z,24.70
2019-06-07T12:14:30.336Z,24.70
2019-06-07T12:16:58.929Z,24.80
2019-06-07T12:19:27.956Z,24.80
2019-06-07T12:21:56.533Z,24.80
2019-06-07T12:24:25.491Z,24.90
2019-06-07T12:26:54.146Z,25.00
2019-06-07T12:29:23.087Z,25.00
2019-06-07T12:31:54.724Z,25.00
2019-06-07T12:34:42.409Z,25.00
2019-06-07T12:37:11.698Z,25.00
2019-06-07T12:39:41.115Z,25.00
2019-06-07T12:42:09.818Z,25.00
2019-06-07T12:44:38.997Z,25.10
2019-06-07T12:47:07.585Z,25.10
2019-06-07T12:49:36.652Z,25.20
2019-06-07T12:52:05.691Z,25.30
2019-06-07T12:54:34.722Z,25.20
2019-06-07T12:57:03.521Z,25.30
2019-06-07T12:59:32.508Z,25.30
2019-06-07T13:02:02.551Z,25.30
2019-06-07T13:04:31.530Z,25.30
2019-06-07T13:07:00.241Z,25.30
2019-06-07T13:09:29.239Z,25.40
2019-06-07T13:11:57.822Z,25.40
2019-06-07T13:14:26.478Z,25.40
2019-06-07T13:16:55.017Z,25.40
2019-06-07T13:19:24.313Z,25.40
2019-06-07T13:21:53.364Z,25.50
2019-06-07T13:24:22.847Z,25.60
2019-06-07T13:26:51.682Z,25.60
2019-06-07T13:29:30.060Z,25.60
2019-06-07T13:31:57.852Z,25.70
2019-06-07T13:34:26.608Z,25.70
2019-06-07T13:36:55.261Z,25.70
2019-06-07T13:39:26.464Z,25.80
2019-06-07T13:41:54.306Z,25.80
2019-06-07T13:44:22.957Z,26.00
2019-06-07T13:46:51.771Z,26.00
2019-06-07T13:49:21.481Z,26.00
2019-06-07T13:51:50.380Z,26.00
2019-06-07T13:54:18.939Z,26.00
2019-06-07T13:57:01.523Z,26.10
2019-06-07T13:59:18.699Z,26.20
2019-06-07T14:01:47.696Z,26.20
2019-06-07T14:04:16.353Z,26.20
2019-06-07T14:06:45.654Z,26.10
2019-06-07T14:09:14.709Z,26.20
2019-06-07T14:11:50.645Z,26.20
2019-06-07T14:14:13.948Z,26.30
2019-06-07T14:16:42.534Z,26.30
2019-06-07T14:19:11.115Z,26.30
2019-06-07T14:21:39.726Z,26.30
2019-06-07T14:24:08.467Z,26.30
2019-06-07T14:26:37.057Z,26.30
2019-06-07T14:29:06.131Z,26.30
2019-06-07T14:31:35.577Z,26.40
2019-06-07T14:34:04.525Z,26.50
2019-06-07T14:36:34.359Z,26.60
2019-06-07T14:39:03.354Z,26.70
2019-06-07T14:41:33.650Z,26.70
2019-06-07T14:44:04.206Z,26.70
2019-06-07T14:46:34.280Z,26.60
2019-06-07T14:49:03.259Z,26.60
2019-06-07T14:51:33.504Z,26.60
2019-06-07T14:54:03.404Z,26.60
2019-06-07T14:56:33.221Z,26.50
2019-06-07T14:59:02.409Z,26.50
2019-06-07T15:01:31.364Z,26.50
2019-06-07T15:04:00.747Z,26.60
2019-06-07T15:06:30.655Z,26.70
2019-06-07T15:08:59.256Z,26.70
2019-06-07T15:11:28.921Z,26.80
2019-06-07T15:13:58.350Z,26.80
2019-06-07T15:16:27.419Z,26.80
2019-06-07T15:18:56.984Z,26.80
2019-06-07T15:21:26.648Z,26.90
2019-06-07T15:23:56.068Z,26.90
2019-06-07T15:26:24.732Z,26.90
2019-06-07T15:28:53.644Z,26.80
2019-06-07T15:31:22.250Z,26.80
2019-06-07T15:33:51.289Z,26.80
2019-06-07T15:36:19.937Z,26.80
2019-06-07T15:38:48.661Z,26.70
2019-06-07T15:41:17.639Z,26.70
2019-06-07T15:43:46.809Z,26.60
2019-06-07T15:46:15.439Z,26.60
2019-06-07T15:48:44.456Z,26.50
2019-06-07T15:51:13.122Z,26.50
2019-06-07T15:53:44.594Z,26.70
2019-06-07T15:56:12.138Z,26.70
2019-06-07T15:58:41.351Z,26.80
2019-06-07T16:01:10.502Z,26.80
2019-06-07T16:03:39.884Z,26.80
2019-06-07T16:06:08.758Z,26.80
2019-06-07T16:08:38.633Z,26.80
2019-06-07T16:11:07.765Z,26.80
2019-06-07T16:13:36.877Z,26.80
2019-06-07T16:16:07.558Z,26.80
2019-06-07T16:18:37.666Z,26.80
2019-06-07T16:21:06.734Z,26.80
2019-06-07T16:23:38.096Z,26.80
2019-06-07T16:26:07.066Z,26.80
2019-06-07T16:28:36.232Z,26.70
2019-06-07T16:31:05.168Z,26.60
2019-06-07T16:33:38.781Z,26.50
2019-06-07T16:36:08.956Z,26.40
2019-06-07T16:38:38.065Z,26.40
2019-06-07T16:41:07.355Z,26.40
2019-06-07T16:43:38.542Z,26.40
2019-06-07T16:46:07.742Z,26.40
2019-06-07T16:48:36.854Z,26.40
2019-06-07T16:51:05.643Z,26.30
2019-06-07T16:53:35.908Z,26.30
2019-06-07T16:56:05.706Z,26.30
2019-06-07T16:58:34.348Z,26.30
2019-06-07T17:01:03.017Z,26.30
2019-06-07T17:03:31.568Z,26.30
2019-06-07T17:06:00.744Z,26.20
2019-06-07T17:08:29.765Z,26.20
2019-06-07T17:10:58.638Z,26.20
2019-06-07T17:13:33.348Z,26.10
2019-06-07T17:15:57.591Z,26.10
2019-06-07T17:18:26.158Z,26.10
2019-06-07T17:20:55.238Z,26.00
2019-06-07T17:23:23.919Z,26.00
2019-06-07T17:25:52.489Z,25.90
2019-06-07T17:28:22.068Z,25.90
2019-06-07T17:30:50.710Z,25.80
2019-06-07T17:33:19.867Z,25.80
2019-06-07T17:35:48.825Z,25.70
2019-06-07T17:38:19.334Z,25.70
2019-06-07T17:40:49.151Z,25.60
2019-06-07T17:43:17.975Z,25.60
2019-06-07T17:45:47.615Z,25.60
2019-06-07T17:48:17.900Z,25.80
2019-06-07T17:50:47.750Z,25.90
2019-06-07T17:53:16.542Z,26.00
2019-06-07T17:55:46.142Z,25.90
2019-06-07T17:58:21.621Z,25.50
2019-06-07T18:00:53.851Z,25.10
2019-06-07T18:03:22.517Z,24.60
2019-06-07T18:05:53.536Z,24.20
2019-06-07T18:08:25.274Z,23.90
2019-06-07T18:10:55.057Z,23.90
2019-06-07T18:13:23.941Z,23.70
2019-06-07T18:15:57.749Z,23.80
2019-06-07T18:18:23.086Z,23.50
2019-06-07T18:20:53.467Z,23.30
2019-06-07T18:23:22.118Z,23.20
2019-06-07T18:25:52.729Z,23.10
2019-06-07T18:28:23.972Z,22.90
2019-06-07T18:30:52.860Z,22.80
2019-06-07T18:33:22.071Z,22.70
2019-06-07T18:35:53.300Z,22.50
2019-06-07T18:38:21.821Z,22.40
2019-06-07T18:40:51.231Z,22.40
2019-06-07T18:43:20.120Z,22.30
2019-06-07T18:45:49.286Z,22.30
2019-06-07T18:48:18.352Z,22.20
2019-06-07T18:50:48.482Z,22.10
2019-06-07T18:53:17.226Z,22.10
2019-06-07T18:55:45.937Z,22.10
2019-06-07T18:58:14.584Z,22.00
2019-06-07T19:00:43.234Z,22.00
2019-06-07T19:03:12.113Z,21.90
2019-06-07T19:05:41.275Z,21.80
2019-06-07T19:08:10.241Z,21.80
2019-06-07T19:10:38.817Z,21.70
2019-06-07T19:13:08.395Z,21.70
2019-06-07T19:15:37.042Z,21.70
2019-06-07T19:18:05.673Z,21.60
2019-06-07T19:20:34.692Z,21.60
2019-06-07T19:23:03.358Z,21.60
2019-06-07T19:25:32.335Z,21.60
2019-06-07T19:28:01.134Z,21.60
2019-06-07T19:30:30.293Z,21.60
2019-06-07T19:32:59.663Z,21.60
2019-06-07T19:35:28.585Z,21.50
2019-06-07T19:37:57.869Z,21.40
2019-06-07T19:40:26.704Z,21.20
2019-06-07T19:42:56.395Z,21.20
2019-06-07T19:45:30.205Z,21.10
2019-06-07T19:47:56.540Z,20.90
2019-06-07T19:50:25.415Z,20.90
2019-06-07T19:52:54.994Z,20.80
2019-06-07T19:55:24.058Z,20.80
2019-06-07T19:57:53.339Z,20.80
2019-06-07T20:00:23.030Z,20.80
2019-06-07T20:02:51.829Z,20.80
2019-06-07T20:05:23.627Z,20.70
2019-06-07T20:07:52.451Z,20.70
2019-06-07T20:10:21.407Z,20.70
2019-06-07T20:12:50.336Z,20.80
2019-06-07T20:15:28.925Z,20.70
2019-06-07T20:17:51.124Z,20.70
2019-06-07T20:20:19.945Z,20.70
2019-06-07T20:22:49.062Z,20.70
2019-06-07T20:25:18.672Z,20.60
2019-06-07T20:27:47.287Z,20.60
2019-06-07T20:30:18.152Z,20.60
2019-06-07T20:32:47.292Z,20.60
2019-06-07T20:35:16.212Z,20.60
2019-06-07T20:37:45.362Z,20.70
2019-06-07T20:40:23.737Z,20.60
2019-06-07T20:42:44.851Z,20.50
2019-06-07T20:45:14.132Z,20.50
2019-06-07T20:47:42.858Z,20.50
2019-06-07T20:50:12.550Z,20.40
2019-06-07T20:52:41.582Z,20.40
2019-06-07T20:55:10.825Z,20.40
2019-06-07T20:57:39.450Z,20.40
2019-06-07T21:00:20.691Z,20.40
2019-06-07T21:02:40.982Z,20.30
2019-06-07T21:05:10.103Z,20.40
2019-06-07T21:07:39.325Z,20.30
2019-06-07T21:10:10.451Z,20.40
2019-06-07T21:12:40.876Z,20.50
2019-06-07T21:15:14.178Z,20.50
2019-06-07T21:17:41.445Z,20.50
2019-06-07T21:20:14.243Z,20.50
2019-06-07T21:22:40.996Z,20.60
2019-06-07T21:25:11.542Z,20.50
2019-06-07T21:27:40.203Z,20.50
2019-06-07T21:30:09.794Z,20.60
2019-06-07T21:32:39.587Z,20.60
2019-06-07T21:35:10.215Z,20.60
2019-06-07T21:37:39.294Z,20.60
2019-06-07T21:40:10.346Z,20.60
2019-06-07T21:42:39.569Z,20.60
2019-06-07T21:45:09.893Z,20.60
2019-06-07T21:47:39.190Z,20.50
2019-06-07T21:50:10.587Z,20.60
2019-06-07T21:52:39.837Z,20.60
2019-06-07T21:55:09.461Z,20.60
2019-06-07T21:57:38.602Z,20.60
2019-06-07T22:02:56.643Z,20.60
2019-06-07T22:05:25.849Z,20.60
2019-06-07T22:07:54.454Z,20.70
2019-06-07T22:10:23.082Z,20.60
2019-06-07T22:12:51.668Z,20.50
2019-06-07T22:15:33.082Z,20.60
2019-06-07T22:17:50.991Z,20.60
2019-06-07T22:20:19.887Z,20.70
2019-06-07T22:22:48.621Z,20.70
2019-06-07T22:25:17.601Z,20.70
2019-06-07T22:27:46.886Z,20.60
2019-06-07T22:30:15.765Z,20.60
2019-06-07T22:32:44.683Z,20.70
2019-06-07T22:35:13.430Z,20.60
2019-06-07T22:37:42.235Z,20.70
2019-06-07T22:40:10.957Z,20.70
2019-06-07T22:42:39.929Z,20.70
2019-06-07T22:45:10.967Z,20.60
2019-06-07T22:47:39.276Z,20.60
2019-06-07T22:50:10.650Z,20.60
2019-06-07T22:52:39.867Z,20.60
2019-06-07T22:55:10.055Z,20.60
2019-06-07T22:57:52.771Z,20.60
2019-06-07T23:00:40.706Z,20.60
2019-06-07T23:03:10.618Z,20.50
2019-06-07T23:05:39.373Z,20.50
2019-06-07T23:08:08.786Z,20.40
2019-06-07T23:10:37.651Z,20.40
2019-06-07T23:13:06.752Z,20.40
2019-06-07T23:15:37.923Z,20.40
2019-06-07T23:18:17.697Z,20.40
2019-06-07T23:20:39.859Z,20.40
2019-06-07T23:23:10.024Z,20.40
2019-06-07T23:25:38.745Z,20.30
2019-06-07T23:28:07.425Z,20.20
2019-06-07T23:30:36.166Z,20.20
2019-06-07T23:33:05.618Z,20.20
2019-06-07T23:35:34.413Z,20.20
2019-06-07T23:38:03.459Z,20.20
2019-06-07T23:40:32.025Z,20.20
2019-06-07T23:43:02.434Z,20.20
2019-06-07T23:45:31.540Z,20.20
2019-06-07T23:48:00.619Z,20.20
2019-06-07T23:50:29.532Z,20.20
2019-06-07T23:52:58.523Z,20.20
2019-06-07T23:55:27.500Z,20.30
2019-06-07T23:57:56.079Z,20.30
